sensor_id;sensor_type;location;lat;lon;timestamp;P1;durP1;ratioP1;P2;durP2;ratioP2
61206;SDS011;47070;49.212;8.084;2022-10-16T00:00:28;1110.78;;;999.90;;
61206;SDS011;47070;49.212;8.084;2022-10-16T00:04:28;1103.33;;;999.90;;
61206;SDS011;47070;49.212;8.084;2022-10-16T00:08:29;1099.03;;;999.90;;
61206;SDS011;47070;49.212;8.084;2022-10-16T00:12:30;1096.47;;;999.90;;
61206;SDS011;47070;49.212;8.084;2022-10-16T00:16:30;1093.97;;;999.90;;
61206;SDS011;47070;49.212;8.084;2022-10-16T00:20:33;1093.68;;;999.90;;
61206;SDS011;47070;49.212;8.084;2022-10-16T00:24:34;1092.38;;;999.90;;
61206;SDS011;47070;49.212;8.084;2022-10-16T00:28:36;1083.07;;;999.90;;
61206;SDS011;47070;49.212;8.084;2022-10-16T00:32:37;1085.40;;;999.90;;
61206;SDS011;47070;49.212;8.084;2022-10-16T00:36:38;1079.03;;;999.90;;
61206;SDS011;47070;49.212;8.084;2022-10-16T00:40:38;1080.83;;;999.90;;
61206;SDS011;47070;49.212;8.084;2022-10-16T00:48:58;1073.83;;;999.90;;
61206;SDS011;47070;49.212;8.084;2022-10-16T00:53:16;1077.75;;;999.90;;
61206;SDS011;47070;49.212;8.084;2022-10-16T00:57:17;1086.03;;;999.90;;
61206;SDS011;47070;49.212;8.084;2022-10-16T01:01:18;1084.03;;;999.90;;
61206;SDS011;47070;49.212;8.084;2022-10-16T01:05:20;1081.70;;;999.90;;
61206;SDS011;47070;49.212;8.084;2022-10-16T01:13:32;1083.63;;;999.90;;
61206;SDS011;47070;49.212;8.084;2022-10-16T01:17:41;1077.10;;;999.90;;
61206;SDS011;47070;49.212;8.084;2022-10-16T01:21:50;1080.10;;;999.90;;
61206;SDS011;47070;49.212;8.084;2022-10-16T01:26:11;1078.70;;;999.90;;
61206;SDS011;47070;49.212;8.084;2022-10-16T01:30:29;1083.53;;;999.90;;
61206;SDS011;47070;49.212;8.084;2022-10-16T01:34:33;1088.43;;;999.90;;
61206;SDS011;47070;49.212;8.084;2022-10-16T01:38:39;1069.78;;;999.90;;
61206;SDS011;47070;49.212;8.084;2022-10-16T01:42:42;1079.45;;;999.90;;
61206;SDS011;47070;49.212;8.084;2022-10-16T01:46:47;1078.40;;;999.90;;
61206;SDS011;47070;49.212;8.084;2022-10-16T01:50:59;1073.50;;;999.90;;
61206;SDS011;47070;49.212;8.084;2022-10-16T01:55:04;1073.70;;;999.90;;
61206;SDS011;47070;49.212;8.084;2022-10-16T01:59:09;1067.60;;;999.90;;
61206;SDS011;47070;49.212;8.084;2022-10-16T02:03:14;1069.13;;;999.90;;
61206;SDS011;47070;49.212;8.084;2022-10-16T02:07:17;1067.00;;;999.90;;
61206;SDS011;47070;49.212;8.084;2022-10-16T02:11:18;1076.67;;;999.90;;
61206;SDS011;47070;49.212;8.084;2022-10-16T02:15:19;1077.70;;;999.90;;
61206;SDS011;47070;49.212;8.084;2022-10-16T02:19:19;1081.30;;;999.90;;
61206;SDS011;47070;49.212;8.084;2022-10-16T02:23:27;1074.55;;;999.90;;
61206;SDS011;47070;49.212;8.084;2022-10-16T02:27:57;1079.75;;;999.90;;
61206;SDS011;47070;49.212;8.084;2022-10-16T02:32:19;1076.28;;;999.90;;
61206;SDS011;47070;49.212;8.084;2022-10-16T02:36:24;1075.55;;;999.90;;
61206;SDS011;47070;49.212;8.084;2022-10-16T02:40:26;1081.22;;;999.90;;
61206;SDS011;47070;49.212;8.084;2022-10-16T02:44:27;1081.17;;;999.90;;
61206;SDS011;47070;49.212;8.084;2022-10-16T02:48:28;1088.28;;;999.90;;
61206;SDS011;47070;49.212;8.084;2022-10-16T02:52:28;1082.80;;;999.90;;
61206;SDS011;47070;49.212;8.084;2022-10-16T02:56:29;1089.38;;;999.90;;
61206;SDS011;47070;49.212;8.084;2022-10-16T03:00:30;1089.40;;;999.90;;
61206;SDS011;47070;49.212;8.084;2022-10-16T03:04:30;1085.53;;;999.90;;
61206;SDS011;47070;49.212;8.084;2022-10-16T03:08:31;1089.60;;;999.90;;
61206;SDS011;47070;49.212;8.084;2022-10-16T03:12:31;1091.03;;;999.90;;
61206;SDS011;47070;49.212;8.084;2022-10-16T03:16:32;1097.10;;;999.90;;
61206;SDS011;47070;49.212;8.084;2022-10-16T03:20:32;1093.67;;;999.90;;
61206;SDS011;47070;49.212;8.084;2022-10-16T03:24:33;1095.30;;;999.90;;
61206;SDS011;47070;49.212;8.084;2022-10-16T03:28:34;1093.97;;;999.90;;
61206;SDS011;47070;49.212;8.084;2022-10-16T03:32:34;1088.07;;;999.90;;
61206;SDS011;47070;49.212;8.084;2022-10-16T03:36:35;1095.23;;;999.90;;
61206;SDS011;47070;49.212;8.084;2022-10-16T03:40:35;1095.13;;;999.90;;
61206;SDS011;47070;49.212;8.084;2022-10-16T03:44:36;1084.72;;;999.90;;
61206;SDS011;47070;49.212;8.084;2022-10-16T03:48:36;1086.90;;;999.90;;
61206;SDS011;47070;49.212;8.084;2022-10-16T03:52:37;1085.53;;;999.90;;
61206;SDS011;47070;49.212;8.084;2022-10-16T03:56:37;1088.53;;;999.90;;
61206;SDS011;47070;49.212;8.084;2022-10-16T04:00:41;1079.50;;;999.90;;
61206;SDS011;47070;49.212;8.084;2022-10-16T04:04:43;1085.77;;;999.90;;
61206;SDS011;47070;49.212;8.084;2022-10-16T04:08:43;1092.83;;;999.90;;
61206;SDS011;47070;49.212;8.084;2022-10-16T04:12:44;1087.60;;;999.90;;
61206;SDS011;47070;49.212;8.084;2022-10-16T04:16:45;1088.33;;;999.90;;
61206;SDS011;47070;49.212;8.084;2022-10-16T04:20:45;1089.80;;;999.90;;
61206;SDS011;47070;49.212;8.084;2022-10-16T04:24:46;1092.97;;;999.90;;
61206;SDS011;47070;49.212;8.084;2022-10-16T04:28:46;1096.13;;;999.90;;
61206;SDS011;47070;49.212;8.084;2022-10-16T04:32:47;1097.47;;;999.90;;
61206;SDS011;47070;49.212;8.084;2022-10-16T04:36:51;1091.78;;;999.90;;
61206;SDS011;47070;49.212;8.084;2022-10-16T04:40:52;1092.72;;;999.90;;
61206;SDS011;47070;49.212;8.084;2022-10-16T04:44:52;1089.80;;;999.90;;
61206;SDS011;47070;49.212;8.084;2022-10-16T04:48:53;1081.35;;;999.90;;
61206;SDS011;47070;49.212;8.084;2022-10-16T04:52:54;1080.17;;;999.90;;
61206;SDS011;47070;49.212;8.084;2022-10-16T04:56:54;1083.17;;;999.90;;
61206;SDS011;47070;49.212;8.084;2022-10-16T05:00:55;1084.70;;;999.90;;
61206;SDS011;47070;49.212;8.084;2022-10-16T05:04:55;1079.73;;;999.90;;
61206;SDS011;47070;49.212;8.084;2022-10-16T05:08:56;1090.90;;;999.90;;
61206;SDS011;47070;49.212;8.084;2022-10-16T05:12:56;1084.60;;;999.90;;
61206;SDS011;47070;49.212;8.084;2022-10-16T05:16:57;1086.65;;;999.90;;
61206;SDS011;47070;49.212;8.084;2022-10-16T05:20:59;1088.67;;;999.90;;
61206;SDS011;47070;49.212;8.084;2022-10-16T05:24:59;1095.80;;;999.90;;
61206;SDS011;47070;49.212;8.084;2022-10-16T05:29:00;1084.13;;;999.90;;
61206;SDS011;47070;49.212;8.084;2022-10-16T05:33:00;1088.18;;;999.90;;
61206;SDS011;47070;49.212;8.084;2022-10-16T05:37:01;1087.97;;;999.90;;
61206;SDS011;47070;49.212;8.084;2022-10-16T05:41:01;1084.10;;;999.90;;
61206;SDS011;47070;49.212;8.084;2022-10-16T05:45:03;1084.60;;;999.90;;
61206;SDS011;47070;49.212;8.084;2022-10-16T05:49:05;1080.85;;;999.90;;
61206;SDS011;47070;49.212;8.084;2022-10-16T05:53:05;1076.18;;;999.90;;
61206;SDS011;47070;49.212;8.084;2022-10-16T05:57:06;1082.30;;;999.90;;
61206;SDS011;47070;49.212;8.084;2022-10-16T06:01:09;1080.13;;;999.90;;
61206;SDS011;47070;49.212;8.084;2022-10-16T06:05:11;1084.47;;;999.90;;
61206;SDS011;47070;49.212;8.084;2022-10-16T06:09:12;1080.63;;;999.90;;
61206;SDS011;47070;49.212;8.084;2022-10-16T06:13:13;1080.47;;;999.90;;
61206;SDS011;47070;49.212;8.084;2022-10-16T06:17:14;1069.70;;;999.90;;
61206;SDS011;47070;49.212;8.084;2022-10-16T06:21:22;1081.30;;;999.90;;
61206;SDS011;47070;49.212;8.084;2022-10-16T06:25:26;1069.10;;;999.90;;
61206;SDS011;47070;49.212;8.084;2022-10-16T06:29:27;1063.10;;;999.90;;
61206;SDS011;47070;49.212;8.084;2022-10-16T06:33:27;1065.90;;;999.90;;
61206;SDS011;47070;49.212;8.084;2022-10-16T06:37:28;1065.55;;;999.90;;
61206;SDS011;47070;49.212;8.084;2022-10-16T06:41:28;1063.80;;;999.90;;
61206;SDS011;47070;49.212;8.084;2022-10-16T06:45:29;1068.60;;;999.90;;
61206;SDS011;47070;49.212;8.084;2022-10-16T06:49:29;1075.67;;;999.90;;
61206;SDS011;47070;49.212;8.084;2022-10-16T06:53:31;1070.83;;;999.90;;
61206;SDS011;47070;49.212;8.084;2022-10-16T06:57:33;1073.22;;;999.90;;
61206;SDS011;47070;49.212;8.084;2022-10-16T07:01:33;1065.65;;;999.90;;
61206;SDS011;47070;49.212;8.084;2022-10-16T07:05:40;1075.80;;;999.90;;
61206;SDS011;47070;49.212;8.084;2022-10-16T07:09:42;1078.57;;;999.90;;
61206;SDS011;47070;49.212;8.084;2022-10-16T07:13:42;1095.13;;;999.90;;
61206;SDS011;47070;49.212;8.084;2022-10-16T07:17:44;1081.85;;;999.90;;
61206;SDS011;47070;49.212;8.084;2022-10-16T07:21:44;1084.30;;;999.90;;
61206;SDS011;47070;49.212;8.084;2022-10-16T07:25:45;1087.30;;;999.90;;
61206;SDS011;47070;49.212;8.084;2022-10-16T07:29:45;1093.60;;;999.90;;
61206;SDS011;47070;49.212;8.084;2022-10-16T07:33:46;1088.32;;;999.90;;
61206;SDS011;47070;49.212;8.084;2022-10-16T07:37:48;1086.05;;;999.90;;
61206;SDS011;47070;49.212;8.084;2022-10-16T07:41:48;1091.55;;;999.90;;
61206;SDS011;47070;49.212;8.084;2022-10-16T07:45:49;1092.97;;;999.90;;
61206;SDS011;47070;49.212;8.084;2022-10-16T07:49:50;1092.97;;;999.90;;
61206;SDS011;47070;49.212;8.084;2022-10-16T07:53:50;1098.00;;;999.90;;
61206;SDS011;47070;49.212;8.084;2022-10-16T07:57:51;1104.27;;;999.90;;
61206;SDS011;47070;49.212;8.084;2022-10-16T08:01:52;1106.23;;;999.90;;
61206;SDS011;47070;49.212;8.084;2022-10-16T08:05:52;1104.67;;;999.90;;
61206;SDS011;47070;49.212;8.084;2022-10-16T08:09:53;1110.20;;;999.90;;
61206;SDS011;47070;49.212;8.084;2022-10-16T08:13:53;1109.83;;;999.90;;
61206;SDS011;47070;49.212;8.084;2022-10-16T08:17:55;1104.00;;;999.90;;
61206;SDS011;47070;49.212;8.084;2022-10-16T08:22:03;1107.30;;;999.90;;
61206;SDS011;47070;49.212;8.084;2022-10-16T08:26:04;1102.90;;;999.90;;
61206;SDS011;47070;49.212;8.084;2022-10-16T08:30:07;1117.70;;;999.90;;
61206;SDS011;47070;49.212;8.084;2022-10-16T08:34:08;1113.60;;;999.90;;
61206;SDS011;47070;49.212;8.084;2022-10-16T08:38:09;1115.68;;;999.90;;
61206;SDS011;47070;49.212;8.084;2022-10-16T08:42:19;1118.35;;;999.90;;
61206;SDS011;47070;49.212;8.084;2022-10-16T08:51:07;1113.38;;;999.90;;
61206;SDS011;47070;49.212;8.084;2022-10-16T08:55:57;1105.43;;;999.90;;
61206;SDS011;47070;49.212;8.084;2022-10-16T08:59:37;1110.40;;;999.90;;
61206;SDS011;47070;49.212;8.084;2022-10-16T09:12:04;1107.77;;;999.90;;
61206;SDS011;47070;49.212;8.084;2022-10-16T09:16:44;1116.90;;;999.90;;
61206;SDS011;47070;49.212;8.084;2022-10-16T09:20:59;1124.78;;;999.90;;
61206;SDS011;47070;49.212;8.084;2022-10-16T09:25:16;1129.97;;;999.90;;
61206;SDS011;47070;49.212;8.084;2022-10-16T09:29:20;1136.97;;;999.90;;
61206;SDS011;47070;49.212;8.084;2022-10-16T09:33:25;1142.65;;;999.90;;
61206;SDS011;47070;49.212;8.084;2022-10-16T09:37:30;1149.87;;;999.90;;
61206;SDS011;47070;49.212;8.084;2022-10-16T09:41:33;1144.33;;;999.90;;
61206;SDS011;47070;49.212;8.084;2022-10-16T09:45:36;1153.95;;;999.90;;
61206;SDS011;47070;49.212;8.084;2022-10-16T09:49:37;1157.93;;;999.90;;
61206;SDS011;47070;49.212;8.084;2022-10-16T09:53:41;1160.43;;;999.90;;
61206;SDS011;47070;49.212;8.084;2022-10-16T09:57:50;1167.45;;;999.90;;
61206;SDS011;47070;49.212;8.084;2022-10-16T10:01:52;1162.80;;;999.90;;
61206;SDS011;47070;49.212;8.084;2022-10-16T10:05:53;1163.57;;;999.90;;
61206;SDS011;47070;49.212;8.084;2022-10-16T10:09:54;1168.50;;;999.90;;
61206;SDS011;47070;49.212;8.084;2022-10-16T10:14:03;1160.90;;;999.90;;
61206;SDS011;47070;49.212;8.084;2022-10-16T10:18:15;1165.10;;;999.90;;
61206;SDS011;47070;49.212;8.084;2022-10-16T10:26:27;1171.77;;;999.90;;
61206;SDS011;47070;49.212;8.084;2022-10-16T10:30:41;1176.90;;;999.90;;
61206;SDS011;47070;49.212;8.084;2022-10-16T10:39:19;1176.57;;;999.90;;
61206;SDS011;47070;49.212;8.084;2022-10-16T10:57:00;1171.32;;;999.90;;
61206;SDS011;47070;49.212;8.084;2022-10-16T11:01:08;1174.43;;;999.90;;
61206;SDS011;47070;49.212;8.084;2022-10-16T11:09:41;1185.57;;;999.90;;
61206;SDS011;47070;49.212;8.084;2022-10-16T11:22:25;1178.38;;;999.90;;
61206;SDS011;47070;49.212;8.084;2022-10-16T11:26:33;1181.05;;;999.90;;
61206;SDS011;47070;49.212;8.084;2022-10-16T11:30:48;1176.68;;;999.90;;
61206;SDS011;47070;49.212;8.084;2022-10-16T11:34:58;1172.90;;;999.90;;
61206;SDS011;47070;49.212;8.084;2022-10-16T11:43:16;1180.63;;;999.90;;
61206;SDS011;47070;49.212;8.084;2022-10-16T11:47:42;1176.03;;;999.90;;
61206;SDS011;47070;49.212;8.084;2022-10-16T11:56:15;1183.53;;;999.90;;
61206;SDS011;47070;49.212;8.084;2022-10-16T12:00:20;1178.87;;;999.90;;
61206;SDS011;47070;49.212;8.084;2022-10-16T12:08:35;1180.88;;;999.90;;
61206;SDS011;47070;49.212;8.084;2022-10-16T12:12:37;1182.77;;;999.90;;
61206;SDS011;47070;49.212;8.084;2022-10-16T12:16:50;1182.78;;;999.90;;
61206;SDS011;47070;49.212;8.084;2022-10-16T12:20:59;1182.28;;;999.90;;
61206;SDS011;47070;49.212;8.084;2022-10-16T12:25:26;1183.40;;;999.90;;
61206;SDS011;47070;49.212;8.084;2022-10-16T12:29:38;1172.03;;;999.90;;
61206;SDS011;47070;49.212;8.084;2022-10-16T12:33:56;1183.05;;;999.90;;
61206;SDS011;47070;49.212;8.084;2022-10-16T12:38:06;1178.43;;;999.90;;
61206;SDS011;47070;49.212;8.084;2022-10-16T12:46:23;1183.65;;;999.90;;
61206;SDS011;47070;49.212;8.084;2022-10-16T12:50:44;1181.53;;;999.90;;
61206;SDS011;47070;49.212;8.084;2022-10-16T12:54:44;1175.88;;;999.90;;
61206;SDS011;47070;49.212;8.084;2022-10-16T13:03:02;1172.40;;;999.90;;
61206;SDS011;47070;49.212;8.084;2022-10-16T13:15:52;1162.75;;;999.90;;
61206;SDS011;47070;49.212;8.084;2022-10-16T13:20:24;1163.65;;;999.90;;
61206;SDS011;47070;49.212;8.084;2022-10-16T13:24:40;1159.63;;;999.90;;
61206;SDS011;47070;49.212;8.084;2022-10-16T13:28:50;1161.07;;;999.90;;
61206;SDS011;47070;49.212;8.084;2022-10-16T13:32:53;1158.80;;;999.90;;
61206;SDS011;47070;49.212;8.084;2022-10-16T13:37:24;1158.13;;;999.90;;
61206;SDS011;47070;49.212;8.084;2022-10-16T13:41:27;1165.47;;;999.90;;
61206;SDS011;47070;49.212;8.084;2022-10-16T13:45:27;1162.23;;;999.90;;
61206;SDS011;47070;49.212;8.084;2022-10-16T13:49:28;1152.07;;;999.90;;
61206;SDS011;47070;49.212;8.084;2022-10-16T13:53:33;1156.90;;;999.90;;
61206;SDS011;47070;49.212;8.084;2022-10-16T13:57:34;1156.00;;;999.90;;
61206;SDS011;47070;49.212;8.084;2022-10-16T14:01:40;1153.27;;;999.90;;
61206;SDS011;47070;49.212;8.084;2022-10-16T14:10:23;1156.65;;;999.90;;
61206;SDS011;47070;49.212;8.084;2022-10-16T14:14:33;1154.90;;;999.90;;
61206;SDS011;47070;49.212;8.084;2022-10-16T14:18:39;1161.25;;;999.90;;
61206;SDS011;47070;49.212;8.084;2022-10-16T14:22:40;1164.50;;;999.90;;
61206;SDS011;47070;49.212;8.084;2022-10-16T14:26:43;1162.30;;;999.90;;
61206;SDS011;47070;49.212;8.084;2022-10-16T14:30:52;1165.30;;;999.90;;
61206;SDS011;47070;49.212;8.084;2022-10-16T14:34:59;1165.32;;;999.90;;
61206;SDS011;47070;49.212;8.084;2022-10-16T14:39:01;1165.30;;;999.90;;
61206;SDS011;47070;49.212;8.084;2022-10-16T14:43:02;1171.00;;;999.90;;
61206;SDS011;47070;49.212;8.084;2022-10-16T14:47:12;1175.40;;;999.90;;
61206;SDS011;47070;49.212;8.084;2022-10-16T14:51:18;1174.30;;;999.90;;
61206;SDS011;47070;49.212;8.084;2022-10-16T14:55:19;1176.78;;;999.90;;
61206;SDS011;47070;49.212;8.084;2022-10-16T14:59:30;1175.50;;;999.90;;
61206;SDS011;47070;49.212;8.084;2022-10-16T15:03:35;1176.45;;;999.90;;
61206;SDS011;47070;49.212;8.084;2022-10-16T15:07:35;1176.70;;;999.90;;
61206;SDS011;47070;49.212;8.084;2022-10-16T15:11:36;1169.30;;;999.90;;
61206;SDS011;47070;49.212;8.084;2022-10-16T15:15:38;1159.53;;;999.90;;
61206;SDS011;47070;49.212;8.084;2022-10-16T15:19:40;1164.73;;;999.90;;
61206;SDS011;47070;49.212;8.084;2022-10-16T15:23:41;1159.40;;;999.90;;
61206;SDS011;47070;49.212;8.084;2022-10-16T15:27:41;1168.13;;;999.90;;
61206;SDS011;47070;49.212;8.084;2022-10-16T15:31:41;1151.90;;;999.90;;
61206;SDS011;47070;49.212;8.084;2022-10-16T15:35:42;1168.13;;;999.90;;
61206;SDS011;47070;49.212;8.084;2022-10-16T15:39:46;1160.53;;;999.90;;
61206;SDS011;47070;49.212;8.084;2022-10-16T15:43:49;1174.97;;;999.90;;
61206;SDS011;47070;49.212;8.084;2022-10-16T15:47:50;1168.73;;;999.90;;
61206;SDS011;47070;49.212;8.084;2022-10-16T15:51:51;1165.80;;;999.90;;
61206;SDS011;47070;49.212;8.084;2022-10-16T15:55:53;1163.25;;;999.90;;
61206;SDS011;47070;49.212;8.084;2022-10-16T15:59:53;1160.23;;;999.90;;
61206;SDS011;47070;49.212;8.084;2022-10-16T16:03:54;1161.40;;;999.90;;
61206;SDS011;47070;49.212;8.084;2022-10-16T16:07:55;1158.93;;;999.90;;
61206;SDS011;47070;49.212;8.084;2022-10-16T16:11:56;1161.57;;;999.90;;
61206;SDS011;47070;49.212;8.084;2022-10-16T16:16:00;1149.95;;;999.90;;
61206;SDS011;47070;49.212;8.084;2022-10-16T16:20:00;1156.70;;;999.90;;
61206;SDS011;47070;49.212;8.084;2022-10-16T16:24:02;1143.10;;;999.90;;
61206;SDS011;47070;49.212;8.084;2022-10-16T16:28:07;1135.30;;;999.90;;
61206;SDS011;47070;49.212;8.084;2022-10-16T16:32:10;1133.38;;;999.90;;
61206;SDS011;47070;49.212;8.084;2022-10-16T16:36:11;1124.97;;;999.90;;
61206;SDS011;47070;49.212;8.084;2022-10-16T16:40:12;1124.70;;;999.90;;
61206;SDS011;47070;49.212;8.084;2022-10-16T16:44:14;1122.07;;;999.90;;
61206;SDS011;47070;49.212;8.084;2022-10-16T16:48:15;1117.53;;;999.90;;
61206;SDS011;47070;49.212;8.084;2022-10-16T16:52:16;1101.93;;;999.90;;
61206;SDS011;47070;49.212;8.084;2022-10-16T16:56:17;1102.18;;;999.90;;
61206;SDS011;47070;49.212;8.084;2022-10-16T17:00:18;1097.03;;;999.90;;
61206;SDS011;47070;49.212;8.084;2022-10-16T17:04:19;1104.67;;;999.90;;
61206;SDS011;47070;49.212;8.084;2022-10-16T17:08:19;1085.47;;;999.90;;
61206;SDS011;47070;49.212;8.084;2022-10-16T17:12:20;1087.68;;;999.90;;
61206;SDS011;47070;49.212;8.084;2022-10-16T17:16:21;1093.77;;;999.90;;
61206;SDS011;47070;49.212;8.084;2022-10-16T17:20:22;1084.47;;;999.90;;
61206;SDS011;47070;49.212;8.084;2022-10-16T17:24:22;1086.10;;;999.90;;
61206;SDS011;47070;49.212;8.084;2022-10-16T17:28:23;1078.20;;;999.90;;
61206;SDS011;47070;49.212;8.084;2022-10-16T17:32:24;1081.97;;;999.90;;
61206;SDS011;47070;49.212;8.084;2022-10-16T17:36:25;1086.93;;;999.90;;
61206;SDS011;47070;49.212;8.084;2022-10-16T17:40:28;1080.53;;;999.90;;
61206;SDS011;47070;49.212;8.084;2022-10-16T17:44:29;1084.03;;;999.90;;
61206;SDS011;47070;49.212;8.084;2022-10-16T17:48:29;1080.90;;;999.90;;
61206;SDS011;47070;49.212;8.084;2022-10-16T17:52:30;1078.13;;;999.90;;
61206;SDS011;47070;49.212;8.084;2022-10-16T17:56:30;1079.60;;;999.90;;
61206;SDS011;47070;49.212;8.084;2022-10-16T18:00:31;1080.22;;;999.90;;
61206;SDS011;47070;49.212;8.084;2022-10-16T18:04:32;1074.68;;;999.90;;
61206;SDS011;47070;49.212;8.084;2022-10-16T18:08:32;1077.93;;;999.90;;
61206;SDS011;47070;49.212;8.084;2022-10-16T18:12:36;1077.72;;;999.90;;
61206;SDS011;47070;49.212;8.084;2022-10-16T18:16:36;1079.63;;;999.90;;
61206;SDS011;47070;49.212;8.084;2022-10-16T18:20:38;1081.05;;;999.90;;
61206;SDS011;47070;49.212;8.084;2022-10-16T18:24:39;1069.85;;;999.90;;
61206;SDS011;47070;49.212;8.084;2022-10-16T18:28:39;1073.83;;;999.90;;
61206;SDS011;47070;49.212;8.084;2022-10-16T18:32:40;1072.00;;;999.90;;
61206;SDS011;47070;49.212;8.084;2022-10-16T18:36:41;1068.00;;;999.90;;
61206;SDS011;47070;49.212;8.084;2022-10-16T18:40:44;1068.07;;;999.90;;
61206;SDS011;47070;49.212;8.084;2022-10-16T18:44:45;1072.05;;;999.90;;
61206;SDS011;47070;49.212;8.084;2022-10-16T18:48:46;1069.53;;;999.90;;
61206;SDS011;47070;49.212;8.084;2022-10-16T18:52:47;1071.63;;;999.90;;
61206;SDS011;47070;49.212;8.084;2022-10-16T18:56:50;1068.13;;;999.90;;
61206;SDS011;47070;49.212;8.084;2022-10-16T19:00:50;1060.40;;;998.92;;
61206;SDS011;47070;49.212;8.084;2022-10-16T19:04:51;1057.40;;;996.22;;
61206;SDS011;47070;49.212;8.084;2022-10-16T19:08:52;1061.30;;;999.53;;
61206;SDS011;47070;49.212;8.084;2022-10-16T19:12:53;1061.05;;;999.47;;
61206;SDS011;47070;49.212;8.084;2022-10-16T19:16:53;1061.93;;;999.73;;
61206;SDS011;47070;49.212;8.084;2022-10-16T19:20:54;1061.70;;;999.50;;
61206;SDS011;47070;49.212;8.084;2022-10-16T19:24:58;1062.90;;;999.90;;
61206;SDS011;47070;49.212;8.084;2022-10-16T19:29:00;1059.65;;;998.35;;
61206;SDS011;47070;49.212;8.084;2022-10-16T19:33:01;1061.47;;;999.50;;
61206;SDS011;47070;49.212;8.084;2022-10-16T19:37:02;1061.95;;;999.38;;
61206;SDS011;47070;49.212;8.084;2022-10-16T19:41:06;1055.57;;;994.10;;
61206;SDS011;47070;49.212;8.084;2022-10-16T19:45:08;1060.55;;;999.28;;
61206;SDS011;47070;49.212;8.084;2022-10-16T19:49:10;1052.23;;;991.33;;
61206;SDS011;47070;49.212;8.084;2022-10-16T19:53:12;1051.70;;;990.63;;
61206;SDS011;47070;49.212;8.084;2022-10-16T19:57:12;1051.43;;;990.50;;
61206;SDS011;47070;49.212;8.084;2022-10-16T20:01:13;1049.90;;;989.17;;
61206;SDS011;47070;49.212;8.084;2022-10-16T20:05:14;1046.65;;;985.92;;
61206;SDS011;47070;49.212;8.084;2022-10-16T20:09:15;1045.77;;;984.93;;
61206;SDS011;47070;49.212;8.084;2022-10-16T20:13:15;1043.47;;;982.73;;
61206;SDS011;47070;49.212;8.084;2022-10-16T20:17:16;1047.68;;;986.95;;
61206;SDS011;47070;49.212;8.084;2022-10-16T20:21:20;1051.10;;;989.80;;
61206;SDS011;47070;49.212;8.084;2022-10-16T20:25:22;1042.28;;;981.40;;
61206;SDS011;47070;49.212;8.084;2022-10-16T20:29:23;1046.95;;;986.22;;
61206;SDS011;47070;49.212;8.084;2022-10-16T20:33:23;1049.27;;;988.40;;
61206;SDS011;47070;49.212;8.084;2022-10-16T20:37:24;1043.97;;;983.38;;
61206;SDS011;47070;49.212;8.084;2022-10-16T20:41:25;1042.13;;;981.33;;
61206;SDS011;47070;49.212;8.084;2022-10-16T20:45:25;1035.90;;;975.45;;
61206;SDS011;47070;49.212;8.084;2022-10-16T20:49:26;1035.75;;;975.45;;
61206;SDS011;47070;49.212;8.084;2022-10-16T20:53:27;1047.47;;;986.20;;
61206;SDS011;47070;49.212;8.084;2022-10-16T20:57:28;1040.68;;;980.00;;
61206;SDS011;47070;49.212;8.084;2022-10-16T21:01:29;1032.90;;;972.70;;
61206;SDS011;47070;49.212;8.084;2022-10-16T21:05:30;1034.30;;;974.08;;
61206;SDS011;47070;49.212;8.084;2022-10-16T21:09:33;1036.22;;;975.63;;
61206;SDS011;47070;49.212;8.084;2022-10-16T21:13:33;1039.87;;;979.13;;
61206;SDS011;47070;49.212;8.084;2022-10-16T21:17:34;1032.50;;;972.23;;
61206;SDS011;47070;49.212;8.084;2022-10-16T21:21:35;1034.10;;;973.53;;
61206;SDS011;47070;49.212;8.084;2022-10-16T21:25:37;1027.90;;;967.60;;
61206;SDS011;47070;49.212;8.084;2022-10-16T21:29:37;1027.45;;;967.25;;
61206;SDS011;47070;49.212;8.084;2022-10-16T21:33:38;1038.13;;;977.63;;
61206;SDS011;47070;49.212;8.084;2022-10-16T21:37:38;1026.68;;;966.47;;
61206;SDS011;47070;49.212;8.084;2022-10-16T21:41:39;1024.80;;;964.00;;
61206;SDS011;47070;49.212;8.084;2022-10-16T21:45:41;1027.32;;;967.35;;
61206;SDS011;47070;49.212;8.084;2022-10-16T21:49:41;1025.63;;;965.53;;
61206;SDS011;47070;49.212;8.084;2022-10-16T21:53:42;1015.33;;;955.43;;
61206;SDS011;47070;49.212;8.084;2022-10-16T21:57:42;1020.47;;;960.83;;
61206;SDS011;47070;49.212;8.084;2022-10-16T22:01:43;1019.33;;;959.53;;
61206;SDS011;47070;49.212;8.084;2022-10-16T22:05:43;1014.27;;;954.70;;
61206;SDS011;47070;49.212;8.084;2022-10-16T22:09:44;1014.40;;;955.00;;
61206;SDS011;47070;49.212;8.084;2022-10-16T22:13:45;1011.50;;;952.00;;
61206;SDS011;47070;49.212;8.084;2022-10-16T22:17:45;1013.13;;;953.65;;
61206;SDS011;47070;49.212;8.084;2022-10-16T22:21:46;1020.00;;;960.30;;
61206;SDS011;47070;49.212;8.084;2022-10-16T22:25:47;1024.55;;;964.55;;
61206;SDS011;47070;49.212;8.084;2022-10-16T22:29:51;1020.40;;;960.50;;
61206;SDS011;47070;49.212;8.084;2022-10-16T22:33:53;1013.03;;;953.63;;
61206;SDS011;47070;49.212;8.084;2022-10-16T22:37:54;1012.17;;;952.80;;
61206;SDS011;47070;49.212;8.084;2022-10-16T22:41:55;1015.43;;;955.67;;
61206;SDS011;47070;49.212;8.084;2022-10-16T22:46:00;1014.57;;;954.87;;
61206;SDS011;47070;49.212;8.084;2022-10-16T22:50:04;1012.83;;;953.30;;
61206;SDS011;47070;49.212;8.084;2022-10-16T22:54:05;1012.60;;;952.92;;
61206;SDS011;47070;49.212;8.084;2022-10-16T22:58:06;1013.43;;;953.77;;
61206;SDS011;47070;49.212;8.084;2022-10-16T23:02:06;1009.20;;;949.53;;
61206;SDS011;47070;49.212;8.084;2022-10-16T23:06:06;1014.13;;;954.57;;
61206;SDS011;47070;49.212;8.084;2022-10-16T23:10:07;1003.33;;;943.93;;
61206;SDS011;47070;49.212;8.084;2022-10-16T23:14:08;1011.50;;;952.10;;
61206;SDS011;47070;49.212;8.084;2022-10-16T23:18:08;1003.57;;;944.23;;
61206;SDS011;47070;49.212;8.084;2022-10-16T23:22:09;1004.03;;;944.60;;
61206;SDS011;47070;49.212;8.084;2022-10-16T23:26:11;1002.50;;;943.57;;
61206;SDS011;47070;49.212;8.084;2022-10-16T23:30:13;993.70;;;934.88;;
61206;SDS011;47070;49.212;8.084;2022-10-16T23:34:14;1000.70;;;941.80;;
61206;SDS011;47070;49.212;8.084;2022-10-16T23:38:14;1004.33;;;944.97;;
61206;SDS011;47070;49.212;8.084;2022-10-16T23:42:15;1002.97;;;943.47;;
61206;SDS011;47070;49.212;8.084;2022-10-16T23:46:16;994.13;;;935.45;;
61206;SDS011;47070;49.212;8.084;2022-10-16T23:50:17;1000.25;;;941.35;;
61206;SDS011;47070;49.212;8.084;2022-10-16T23:54:17;1006.42;;;947.13;;
61206;SDS011;47070;49.212;8.084;2022-10-16T23:58:18;1004.93;;;945.57;;
